sensor_id;sensor_type;location;lat;lon;timestamp;pressure;altitude;pressure_sealevel;temperature;humidity
26436;BME280;15351;52.408;16.826;2023-02-23T00:02:07;101088.23;;;3.82;65.48
26436;BME280;15351;52.408;16.826;2023-02-23T00:04:35;101085.46;;;3.76;65.58
26436;BME280;15351;52.408;16.826;2023-02-23T00:07:03;101082.67;;;3.78;65.90
26436;BME280;15351;52.408;16.826;2023-02-23T00:09:32;101077.35;;;3.82;65.76
26436;BME280;15351;52.408;16.826;2023-02-23T00:12:05;101074.54;;;3.82;65.69
26436;BME280;15351;52.408;16.826;2023-02-23T00:14:35;101074.46;;;3.81;65.51
26436;BME280;15351;52.408;16.826;2023-02-23T00:17:05;101071.16;;;3.82;65.49
26436;BME280;15351;52.408;16.826;2023-02-23T00:19:39;101065.80;;;3.80;65.51
26436;BME280;15351;52.408;16.826;2023-02-23T00:22:12;101065.77;;;3.80;65.55
26436;BME280;15351;52.408;16.826;2023-02-23T00:24:40;101065.85;;;3.79;65.63
26436;BME280;15351;52.408;16.826;2023-02-23T00:27:13;101065.75;;;3.78;65.51
26436;BME280;15351;52.408;16.826;2023-02-23T00:29:44;101068.33;;;3.82;65.49
26436;BME280;15351;52.408;16.826;2023-02-23T00:32:15;101066.36;;;3.82;65.31
26436;BME280;15351;52.408;16.826;2023-02-23T00:34:47;101070.12;;;3.79;65.25
26436;BME280;15351;52.408;16.826;2023-02-23T00:37:16;101069.55;;;3.73;65.13
26436;BME280;15351;52.408;16.826;2023-02-23T00:39:46;101066.56;;;3.68;65.30
26436;BME280;15351;52.408;16.826;2023-02-23T00:42:14;101064.84;;;3.72;65.57
26436;BME280;15351;52.408;16.826;2023-02-23T00:44:41;101063.87;;;3.71;65.41
26436;BME280;15351;52.408;16.826;2023-02-23T00:47:13;101065.52;;;3.70;65.34
26436;BME280;15351;52.408;16.826;2023-02-23T00:49:42;101059.15;;;3.72;65.29
26436;BME280;15351;52.408;16.826;2023-02-23T00:52:10;101055.31;;;3.71;65.16
26436;BME280;15351;52.408;16.826;2023-02-23T00:54:40;101058.39;;;3.68;65.23
26436;BME280;15351;52.408;16.826;2023-02-23T00:57:08;101056.63;;;3.66;65.33
26436;BME280;15351;52.408;16.826;2023-02-23T00:59:35;101061.35;;;3.67;65.57
26436;BME280;15351;52.408;16.826;2023-02-23T01:02:02;101056.64;;;3.64;65.41
26436;BME280;15351;52.408;16.826;2023-02-23T01:04:29;101054.84;;;3.62;65.37
26436;BME280;15351;52.408;16.826;2023-02-23T01:06:57;101054.58;;;3.58;65.45
26436;BME280;15351;52.408;16.826;2023-02-23T01:09:28;101050.71;;;3.55;65.22
26436;BME280;15351;52.408;16.826;2023-02-23T01:11:56;101050.89;;;3.55;65.41
26436;BME280;15351;52.408;16.826;2023-02-23T01:14:23;101048.66;;;3.58;65.50
26436;BME280;15351;52.408;16.826;2023-02-23T01:16:51;101048.42;;;3.60;65.72
26436;BME280;15351;52.408;16.826;2023-02-23T01:19:18;101049.38;;;3.63;65.62
26436;BME280;15351;52.408;16.826;2023-02-23T01:21:46;101044.93;;;3.65;65.55
26436;BME280;15351;52.408;16.826;2023-02-23T01:24:13;101048.71;;;3.65;65.38
26436;BME280;15351;52.408;16.826;2023-02-23T01:26:44;101045.71;;;3.65;65.25
26436;BME280;15351;52.408;16.826;2023-02-23T01:29:14;101046.73;;;3.58;65.30
26436;BME280;15351;52.408;16.826;2023-02-23T01:31:44;101047.52;;;3.48;65.28
26436;BME280;15351;52.408;16.826;2023-02-23T01:34:13;101049.70;;;3.43;65.64
26436;BME280;15351;52.408;16.826;2023-02-23T01:36:43;101045.77;;;3.43;65.71
26436;BME280;15351;52.408;16.826;2023-02-23T01:39:13;101046.37;;;3.47;65.79
26436;BME280;15351;52.408;16.826;2023-02-23T01:41:41;101040.34;;;3.52;65.63
26436;BME280;15351;52.408;16.826;2023-02-23T01:46:45;101038.40;;;3.45;65.61
26436;BME280;15351;52.408;16.826;2023-02-23T01:49:23;101043.23;;;3.47;65.78
26436;BME280;15351;52.408;16.826;2023-02-23T01:51:57;101038.16;;;3.45;65.74
26436;BME280;15351;52.408;16.826;2023-02-23T01:54:29;101036.17;;;3.41;65.72
26436;BME280;15351;52.408;16.826;2023-02-23T01:57:00;101034.98;;;3.43;65.66
26436;BME280;15351;52.408;16.826;2023-02-23T01:59:34;101034.38;;;3.44;65.73
26436;BME280;15351;52.408;16.826;2023-02-23T02:02:05;101033.02;;;3.46;65.71
26436;BME280;15351;52.408;16.826;2023-02-23T02:04:38;101027.36;;;3.47;65.88
26436;BME280;15351;52.408;16.826;2023-02-23T02:07:15;101024.94;;;3.49;65.95
26436;BME280;15351;52.408;16.826;2023-02-23T02:09:48;101025.59;;;3.53;65.81
26436;BME280;15351;52.408;16.826;2023-02-23T02:12:35;101024.87;;;3.52;65.63
26436;BME280;15351;52.408;16.826;2023-02-23T02:15:06;101020.96;;;3.49;65.60
26436;BME280;15351;52.408;16.826;2023-02-23T02:18:11;101020.09;;;3.47;65.61
26436;BME280;15351;52.408;16.826;2023-02-23T02:27:09;101012.63;;;3.53;65.77
26436;BME280;15351;52.408;16.826;2023-02-23T02:40:47;101011.10;;;3.46;65.91
26436;BME280;15351;52.408;16.826;2023-02-23T02:46:14;101006.04;;;3.49;65.74
26436;BME280;15351;52.408;16.826;2023-02-23T02:51:24;100998.31;;;3.41;66.02
26436;BME280;15351;52.408;16.826;2023-02-23T02:56:47;100993.23;;;3.43;66.12
26436;BME280;15351;52.408;16.826;2023-02-23T02:59:18;100992.61;;;3.44;66.07
26436;BME280;15351;52.408;16.826;2023-02-23T03:02:05;100989.02;;;3.39;65.93
26436;BME280;15351;52.408;16.826;2023-02-23T03:04:51;100986.11;;;3.38;66.14
26436;BME280;15351;52.408;16.826;2023-02-23T03:11:04;100986.68;;;3.40;66.29
26436;BME280;15351;52.408;16.826;2023-02-23T03:14:33;100984.04;;;3.37;66.20
26436;BME280;15351;52.408;16.826;2023-02-23T03:23:51;100973.59;;;3.30;66.34
26436;BME280;15351;52.408;16.826;2023-02-23T03:27:05;100970.13;;;3.27;66.59
26436;BME280;15351;52.408;16.826;2023-02-23T03:30:14;100968.95;;;3.29;66.56
26436;BME280;15351;52.408;16.826;2023-02-23T03:33:10;100964.73;;;3.34;66.56
26436;BME280;15351;52.408;16.826;2023-02-23T03:36:17;100961.14;;;3.35;66.42
26436;BME280;15351;52.408;16.826;2023-02-23T03:39:14;100959.83;;;3.31;66.59
26436;BME280;15351;52.408;16.826;2023-02-23T03:42:10;100957.65;;;3.34;66.62
26436;BME280;15351;52.408;16.826;2023-02-23T03:45:15;100953.52;;;3.37;66.63
26436;BME280;15351;52.408;16.826;2023-02-23T03:48:05;100950.98;;;3.37;66.47
26436;BME280;15351;52.408;16.826;2023-02-23T03:51:02;100949.72;;;3.35;66.48
26436;BME280;15351;52.408;16.826;2023-02-23T03:54:14;100954.40;;;3.37;66.65
26436;BME280;15351;52.408;16.826;2023-02-23T03:57:06;100944.08;;;3.44;66.81
26436;BME280;15351;52.408;16.826;2023-02-23T04:00:00;100944.16;;;3.39;66.61
26436;BME280;15351;52.408;16.826;2023-02-23T04:02:49;100943.50;;;3.38;66.57
26436;BME280;15351;52.408;16.826;2023-02-23T04:05:39;100945.27;;;3.36;66.58
26436;BME280;15351;52.408;16.826;2023-02-23T04:08:32;100947.89;;;3.30;66.64
26436;BME280;15351;52.408;16.826;2023-02-23T04:14:20;100943.15;;;3.33;66.90
26436;BME280;15351;52.408;16.826;2023-02-23T04:16:51;100941.67;;;3.34;66.91
26436;BME280;15351;52.408;16.826;2023-02-23T04:19:20;100942.39;;;3.34;66.81
26436;BME280;15351;52.408;16.826;2023-02-23T04:21:48;100944.70;;;3.36;66.89
26436;BME280;15351;52.408;16.826;2023-02-23T04:24:17;100935.42;;;3.39;67.13
26436;BME280;15351;52.408;16.826;2023-02-23T04:26:44;100937.90;;;3.43;67.01
26436;BME280;15351;52.408;16.826;2023-02-23T04:29:11;100936.42;;;3.44;66.86
26436;BME280;15351;52.408;16.826;2023-02-23T04:31:39;100930.60;;;3.46;66.65
26436;BME280;15351;52.408;16.826;2023-02-23T04:34:09;100926.70;;;3.46;66.70
26436;BME280;15351;52.408;16.826;2023-02-23T04:36:36;100925.49;;;3.43;66.75
26436;BME280;15351;52.408;16.826;2023-02-23T04:39:03;100923.14;;;3.43;66.81
26436;BME280;15351;52.408;16.826;2023-02-23T04:41:31;100915.42;;;3.44;66.87
26436;BME280;15351;52.408;16.826;2023-02-23T04:44:01;100912.48;;;3.46;66.84
26436;BME280;15351;52.408;16.826;2023-02-23T04:46:29;100912.65;;;3.43;66.79
26436;BME280;15351;52.408;16.826;2023-02-23T04:48:57;100910.34;;;3.41;66.78
26436;BME280;15351;52.408;16.826;2023-02-23T04:51:25;100908.30;;;3.36;66.74
26436;BME280;15351;52.408;16.826;2023-02-23T04:53:58;100907.02;;;3.30;66.95
26436;BME280;15351;52.408;16.826;2023-02-23T04:56:28;100908.41;;;3.32;67.24
26436;BME280;15351;52.408;16.826;2023-02-23T04:58:58;100909.47;;;3.34;67.04
26436;BME280;15351;52.408;16.826;2023-02-23T05:01:26;100903.16;;;3.33;67.01
26436;BME280;15351;52.408;16.826;2023-02-23T05:03:56;100904.15;;;3.32;66.92
26436;BME280;15351;52.408;16.826;2023-02-23T05:06:24;100903.64;;;3.26;66.91
26436;BME280;15351;52.408;16.826;2023-02-23T05:08:53;100904.80;;;3.22;67.17
26436;BME280;15351;52.408;16.826;2023-02-23T05:11:22;100905.49;;;3.25;67.40
26436;BME280;15351;52.408;16.826;2023-02-23T05:13:50;100902.66;;;3.25;67.40
26436;BME280;15351;52.408;16.826;2023-02-23T05:16:19;100902.71;;;3.21;67.33
26436;BME280;15351;52.408;16.826;2023-02-23T05:18:47;100896.84;;;3.22;67.29
26436;BME280;15351;52.408;16.826;2023-02-23T05:21:14;100897.86;;;3.20;67.38
26436;BME280;15351;52.408;16.826;2023-02-23T05:23:43;100895.46;;;3.17;67.61
26436;BME280;15351;52.408;16.826;2023-02-23T05:26:12;100896.05;;;3.18;67.75
26436;BME280;15351;52.408;16.826;2023-02-23T05:28:41;100893.31;;;3.19;67.74
26436;BME280;15351;52.408;16.826;2023-02-23T05:31:10;100895.59;;;3.24;67.63
26436;BME280;15351;52.408;16.826;2023-02-23T05:33:37;100889.05;;;3.24;67.55
26436;BME280;15351;52.408;16.826;2023-02-23T05:36:09;100893.68;;;3.17;67.59
26436;BME280;15351;52.408;16.826;2023-02-23T05:38:38;100892.64;;;3.17;67.86
26436;BME280;15351;52.408;16.826;2023-02-23T05:41:12;100890.21;;;3.20;67.89
26436;BME280;15351;52.408;16.826;2023-02-23T05:43:42;100881.51;;;3.22;67.86
26436;BME280;15351;52.408;16.826;2023-02-23T05:46:15;100879.30;;;3.23;67.75
26436;BME280;15351;52.408;16.826;2023-02-23T05:48:43;100882.13;;;3.22;67.75
26436;BME280;15351;52.408;16.826;2023-02-23T05:51:13;100879.35;;;3.20;67.87
26436;BME280;15351;52.408;16.826;2023-02-23T05:53:41;100879.48;;;3.17;67.97
26436;BME280;15351;52.408;16.826;2023-02-23T05:56:12;100877.41;;;3.18;68.13
26436;BME280;15351;52.408;16.826;2023-02-23T05:58:47;100874.20;;;3.18;67.97
26436;BME280;15351;52.408;16.826;2023-02-23T06:01:15;100876.71;;;3.20;68.01
26436;BME280;15351;52.408;16.826;2023-02-23T06:03:44;100874.11;;;3.17;68.04
26436;BME280;15351;52.408;16.826;2023-02-23T06:06:12;100869.16;;;3.19;68.22
26436;BME280;15351;52.408;16.826;2023-02-23T06:08:40;100866.44;;;3.24;68.19
26436;BME280;15351;52.408;16.826;2023-02-23T06:11:07;100860.89;;;3.25;68.15
26436;BME280;15351;52.408;16.826;2023-02-23T06:13:36;100860.35;;;3.27;68.05
26436;BME280;15351;52.408;16.826;2023-02-23T06:16:04;100859.95;;;3.21;67.99
26436;BME280;15351;52.408;16.826;2023-02-23T06:18:33;100860.12;;;3.17;68.16
26436;BME280;15351;52.408;16.826;2023-02-23T06:21:10;100861.40;;;3.18;68.35
26436;BME280;15351;52.408;16.826;2023-02-23T06:23:37;100858.48;;;3.19;68.37
26436;BME280;15351;52.408;16.826;2023-02-23T06:26:05;100858.18;;;3.21;68.30
26436;BME280;15351;52.408;16.826;2023-02-23T06:28:38;100862.23;;;3.19;68.38
26436;BME280;15351;52.408;16.826;2023-02-23T06:31:05;100863.95;;;3.15;68.41
26436;BME280;15351;52.408;16.826;2023-02-23T06:33:33;100867.11;;;3.16;68.62
26436;BME280;15351;52.408;16.826;2023-02-23T06:36:01;100872.17;;;3.17;68.62
26436;BME280;15351;52.408;16.826;2023-02-23T06:38:28;100871.77;;;3.13;68.50
26436;BME280;15351;52.408;16.826;2023-02-23T06:40:56;100877.20;;;3.16;68.55
26436;BME280;15351;52.408;16.826;2023-02-23T06:43:27;100880.49;;;3.17;68.60
26436;BME280;15351;52.408;16.826;2023-02-23T06:45:56;100880.03;;;3.16;68.80
26436;BME280;15351;52.408;16.826;2023-02-23T06:48:24;100879.38;;;3.22;68.91
26436;BME280;15351;52.408;16.826;2023-02-23T06:50:51;100882.02;;;3.29;68.80
26436;BME280;15351;52.408;16.826;2023-02-23T06:53:20;100881.58;;;3.34;68.75
26436;BME280;15351;52.408;16.826;2023-02-23T06:55:49;100881.09;;;3.38;68.58
26436;BME280;15351;52.408;16.826;2023-02-23T06:58:16;100881.98;;;3.36;68.59
26436;BME280;15351;52.408;16.826;2023-02-23T07:00:43;100880.09;;;3.39;68.92
26436;BME280;15351;52.408;16.826;2023-02-23T07:03:18;100877.10;;;3.46;68.84
26436;BME280;15351;52.408;16.826;2023-02-23T07:05:50;100872.52;;;3.50;68.58
26436;BME280;15351;52.408;16.826;2023-02-23T07:08:30;100875.94;;;3.51;68.59
26436;BME280;15351;52.408;16.826;2023-02-23T07:11:13;100876.26;;;3.52;68.50
26436;BME280;15351;52.408;16.826;2023-02-23T07:13:42;100876.02;;;3.52;68.66
26436;BME280;15351;52.408;16.826;2023-02-23T07:16:12;100870.30;;;3.57;68.68
26436;BME280;15351;52.408;16.826;2023-02-23T07:18:42;100870.29;;;3.59;68.64
26436;BME280;15351;52.408;16.826;2023-02-23T07:21:09;100871.02;;;3.62;68.55
26436;BME280;15351;52.408;16.826;2023-02-23T07:23:37;100869.54;;;3.64;68.42
26436;BME280;15351;52.408;16.826;2023-02-23T07:26:05;100867.55;;;3.67;68.68
26436;BME280;15351;52.408;16.826;2023-02-23T07:28:33;100862.16;;;3.74;68.67
26436;BME280;15351;52.408;16.826;2023-02-23T07:31:02;100862.13;;;3.80;68.56
26436;BME280;15351;52.408;16.826;2023-02-23T07:33:30;100859.21;;;3.85;68.38
26436;BME280;15351;52.408;16.826;2023-02-23T07:35:59;100854.52;;;3.88;68.22
26436;BME280;15351;52.408;16.826;2023-02-23T07:38:26;100855.67;;;3.90;68.29
26436;BME280;15351;52.408;16.826;2023-02-23T07:40:54;100851.73;;;3.96;68.49
26436;BME280;15351;52.408;16.826;2023-02-23T07:43:22;100851.29;;;4.03;68.42
26436;BME280;15351;52.408;16.826;2023-02-23T07:45:50;100848.06;;;4.10;68.17
26436;BME280;15351;52.408;16.826;2023-02-23T07:48:17;100848.70;;;4.15;68.03
26436;BME280;15351;52.408;16.826;2023-02-23T07:50:45;100843.09;;;4.14;67.75
26436;BME280;15351;52.408;16.826;2023-02-23T07:53:13;100842.36;;;4.14;67.94
26436;BME280;15351;52.408;16.826;2023-02-23T07:55:41;100840.80;;;4.20;67.85
26436;BME280;15351;52.408;16.826;2023-02-23T07:58:08;100841.95;;;4.25;67.93
26436;BME280;15351;52.408;16.826;2023-02-23T08:00:36;100838.33;;;4.32;67.83
26436;BME280;15351;52.408;16.826;2023-02-23T08:03:05;100836.15;;;4.41;67.70
26436;BME280;15351;52.408;16.826;2023-02-23T08:05:33;100830.02;;;4.50;67.53
26436;BME280;15351;52.408;16.826;2023-02-23T08:08:03;100826.05;;;4.59;67.34
26436;BME280;15351;52.408;16.826;2023-02-23T08:10:30;100821.08;;;4.97;67.62
26436;BME280;15351;52.408;16.826;2023-02-23T08:12:58;100807.11;;;5.93;67.28
26436;BME280;15351;52.408;16.826;2023-02-23T08:15:26;100800.71;;;6.95;65.64
26436;BME280;15351;52.408;16.826;2023-02-23T08:17:54;100796.62;;;7.85;63.87
26436;BME280;15351;52.408;16.826;2023-02-23T08:20:23;100798.06;;;8.76;61.96
26436;BME280;15351;52.408;16.826;2023-02-23T08:22:55;100793.27;;;9.58;59.73
26436;BME280;15351;52.408;16.826;2023-02-23T08:25:32;100798.44;;;10.20;57.88
26436;BME280;15351;52.408;16.826;2023-02-23T08:28:02;100794.43;;;10.73;56.42
26436;BME280;15351;52.408;16.826;2023-02-23T08:30:33;100790.10;;;11.21;55.63
26436;BME280;15351;52.408;16.826;2023-02-23T08:33:01;100790.19;;;11.47;54.56
26436;BME280;15351;52.408;16.826;2023-02-23T08:35:33;100784.17;;;11.72;53.78
26436;BME280;15351;52.408;16.826;2023-02-23T08:38:01;100781.52;;;11.94;53.08
26436;BME280;15351;52.408;16.826;2023-02-23T08:40:28;100778.95;;;11.96;52.61
26436;BME280;15351;52.408;16.826;2023-02-23T08:42:56;100779.78;;;11.82;52.14
26436;BME280;15351;52.408;16.826;2023-02-23T08:45:24;100773.84;;;11.47;51.84
26436;BME280;15351;52.408;16.826;2023-02-23T08:47:55;100771.00;;;11.20;52.02
26436;BME280;15351;52.408;16.826;2023-02-23T08:50:23;100770.94;;;11.10;51.88
26436;BME280;15351;52.408;16.826;2023-02-23T08:52:52;100764.75;;;10.87;51.97
26436;BME280;15351;52.408;16.826;2023-02-23T08:55:22;100768.30;;;10.83;52.33
26436;BME280;15351;52.408;16.826;2023-02-23T08:57:56;100765.80;;;10.85;52.50
26436;BME280;15351;52.408;16.826;2023-02-23T09:00:23;100760.39;;;11.00;52.50
26436;BME280;15351;52.408;16.826;2023-02-23T09:02:51;100762.98;;;11.02;51.94
26436;BME280;15351;52.408;16.826;2023-02-23T09:05:19;100760.64;;;10.96;51.97
26436;BME280;15351;52.408;16.826;2023-02-23T09:07:47;100761.79;;;10.86;51.92
26436;BME280;15351;52.408;16.826;2023-02-23T09:10:18;100763.23;;;10.84;52.01
26436;BME280;15351;52.408;16.826;2023-02-23T09:12:51;100756.31;;;10.98;52.00
26436;BME280;15351;52.408;16.826;2023-02-23T09:15:19;100758.86;;;11.07;51.73
26436;BME280;15351;52.408;16.826;2023-02-23T09:17:46;100759.14;;;11.11;51.83
26436;BME280;15351;52.408;16.826;2023-02-23T09:20:15;100763.77;;;11.11;51.68
26436;BME280;15351;52.408;16.826;2023-02-23T09:22:43;100764.38;;;11.20;51.86
26436;BME280;15351;52.408;16.826;2023-02-23T09:25:17;100757.70;;;11.26;51.63
26436;BME280;15351;52.408;16.826;2023-02-23T09:27:49;100753.48;;;11.28;51.58
26436;BME280;15351;52.408;16.826;2023-02-23T09:30:19;100753.02;;;11.24;51.68
26436;BME280;15351;52.408;16.826;2023-02-23T09:32:50;100751.75;;;11.27;51.57
26436;BME280;15351;52.408;16.826;2023-02-23T09:35:22;100749.31;;;11.24;51.41
26436;BME280;15351;52.408;16.826;2023-02-23T09:37:52;100748.80;;;11.19;51.49
26436;BME280;15351;52.408;16.826;2023-02-23T09:40:26;100750.63;;;11.14;51.55
26436;BME280;15351;52.408;16.826;2023-02-23T09:43:48;100752.89;;;11.10;51.51
26436;BME280;15351;52.408;16.826;2023-02-23T09:46:13;100750.51;;;11.01;51.49
26436;BME280;15351;52.408;16.826;2023-02-23T09:49:12;100745.65;;;11.03;51.84
26436;BME280;15351;52.408;16.826;2023-02-23T09:51:44;100743.84;;;10.98;51.75
26436;BME280;15351;52.408;16.826;2023-02-23T09:54:20;100741.73;;;10.93;51.96
26436;BME280;15351;52.408;16.826;2023-02-23T09:56:51;100742.96;;;10.95;52.18
26436;BME280;15351;52.408;16.826;2023-02-23T09:59:21;100743.76;;;11.02;52.19
26436;BME280;15351;52.408;16.826;2023-02-23T10:05:07;100729.66;;;11.18;51.86
26436;BME280;15351;52.408;16.826;2023-02-23T10:07:55;100729.38;;;11.19;51.84
26436;BME280;15351;52.408;16.826;2023-02-23T10:10:49;100722.52;;;11.28;51.92
26436;BME280;15351;52.408;16.826;2023-02-23T10:22:28;100722.48;;;11.42;51.11
26436;BME280;15351;52.408;16.826;2023-02-23T10:25:04;100722.20;;;11.40;51.46
26436;BME280;15351;52.408;16.826;2023-02-23T10:27:45;100720.31;;;11.29;50.98
26436;BME280;15351;52.408;16.826;2023-02-23T10:30:34;100719.57;;;11.18;51.38
26436;BME280;15351;52.408;16.826;2023-02-23T10:35:39;100709.75;;;11.34;52.19
26436;BME280;15351;52.408;16.826;2023-02-23T10:38:14;100705.23;;;11.47;52.16
26436;BME280;15351;52.408;16.826;2023-02-23T10:40:52;100706.24;;;11.53;51.68
26436;BME280;15351;52.408;16.826;2023-02-23T10:43:20;100707.67;;;11.50;51.59
26436;BME280;15351;52.408;16.826;2023-02-23T10:45:51;100707.16;;;11.47;51.68
26436;BME280;15351;52.408;16.826;2023-02-23T10:48:23;100700.48;;;11.46;51.57
26436;BME280;15351;52.408;16.826;2023-02-23T10:50:55;100695.13;;;11.44;51.63
26436;BME280;15351;52.408;16.826;2023-02-23T10:53:34;100695.46;;;11.48;51.59
26436;BME280;15351;52.408;16.826;2023-02-23T10:58:42;100690.52;;;11.46;51.76
26436;BME280;15351;52.408;16.826;2023-02-23T11:01:38;100683.85;;;11.48;51.66
26436;BME280;15351;52.408;16.826;2023-02-23T11:06:40;100677.80;;;11.55;51.63
26436;BME280;15351;52.408;16.826;2023-02-23T11:09:23;100676.00;;;11.52;51.65
26436;BME280;15351;52.408;16.826;2023-02-23T11:11:59;100674.73;;;11.55;52.11
26436;BME280;15351;52.408;16.826;2023-02-23T11:14:28;100672.17;;;11.61;52.09
26436;BME280;15351;52.408;16.826;2023-02-23T11:16:56;100662.21;;;11.72;52.30
26436;BME280;15351;52.408;16.826;2023-02-23T11:19:37;100653.23;;;11.84;52.05
26436;BME280;15351;52.408;16.826;2023-02-23T11:22:05;100648.48;;;11.87;51.97
26436;BME280;15351;52.408;16.826;2023-02-23T11:24:46;100640.45;;;11.95;52.18
26436;BME280;15351;52.408;16.826;2023-02-23T11:27:21;100637.90;;;11.93;51.70
26436;BME280;15351;52.408;16.826;2023-02-23T11:29:53;100631.94;;;11.84;51.84
26436;BME280;15351;52.408;16.826;2023-02-23T11:32:32;100622.80;;;11.82;51.79
26436;BME280;15351;52.408;16.826;2023-02-23T11:35:26;100624.00;;;11.75;51.86
26436;BME280;15351;52.408;16.826;2023-02-23T11:37:54;100619.30;;;11.69;52.04
26436;BME280;15351;52.408;16.826;2023-02-23T11:40:29;100619.02;;;11.64;51.99
26436;BME280;15351;52.408;16.826;2023-02-23T11:43:14;100614.85;;;11.57;52.15
26436;BME280;15351;52.408;16.826;2023-02-23T11:45:54;100617.50;;;11.45;51.97
26436;BME280;15351;52.408;16.826;2023-02-23T11:48:39;100619.61;;;11.29;52.14
26436;BME280;15351;52.408;16.826;2023-02-23T11:51:09;100616.41;;;11.18;52.36
26436;BME280;15351;52.408;16.826;2023-02-23T11:53:44;100615.55;;;11.16;52.80
26436;BME280;15351;52.408;16.826;2023-02-23T11:56:22;100615.70;;;11.18;53.21
26436;BME280;15351;52.408;16.826;2023-02-23T11:59:02;100614.52;;;11.21;53.18
26436;BME280;15351;52.408;16.826;2023-02-23T12:04:48;100600.91;;;11.30;53.57
26436;BME280;15351;52.408;16.826;2023-02-23T12:07:35;100600.80;;;11.33;53.44
26436;BME280;15351;52.408;16.826;2023-02-23T12:10:31;100595.87;;;11.36;53.39
26436;BME280;15351;52.408;16.826;2023-02-23T12:13:11;100598.23;;;11.38;53.49
26436;BME280;15351;52.408;16.826;2023-02-23T12:15:58;100595.27;;;11.40;53.76
26436;BME280;15351;52.408;16.826;2023-02-23T12:19:10;100591.21;;;11.44;53.86
26436;BME280;15351;52.408;16.826;2023-02-23T12:21:59;100588.98;;;11.46;53.73
26436;BME280;15351;52.408;16.826;2023-02-23T12:24:42;100586.04;;;11.47;53.86
26436;BME280;15351;52.408;16.826;2023-02-23T12:27:20;100583.23;;;11.47;53.96
26436;BME280;15351;52.408;16.826;2023-02-23T12:33:00;100578.16;;;11.50;53.93
26436;BME280;15351;52.408;16.826;2023-02-23T12:45:59;100559.19;;;11.51;54.72
26436;BME280;15351;52.408;16.826;2023-02-23T12:48:55;100556.50;;;11.49;54.75
26436;BME280;15351;52.408;16.826;2023-02-23T12:51:37;100553.70;;;11.49;54.82
26436;BME280;15351;52.408;16.826;2023-02-23T12:54:08;100552.92;;;11.49;54.70
26436;BME280;15351;52.408;16.826;2023-02-23T13:03:28;100536.80;;;11.47;55.07
26436;BME280;15351;52.408;16.826;2023-02-23T13:21:37;100509.60;;;11.48;55.35
26436;BME280;15351;52.408;16.826;2023-02-23T13:24:18;100508.48;;;11.50;55.50
26436;BME280;15351;52.408;16.826;2023-02-23T13:29:44;100504.73;;;11.47;55.38
26436;BME280;15351;52.408;16.826;2023-02-23T13:32:17;100506.27;;;11.46;55.45
26436;BME280;15351;52.408;16.826;2023-02-23T13:34:53;100506.07;;;11.47;55.75
26436;BME280;15351;52.408;16.826;2023-02-23T13:37:52;100501.87;;;11.46;55.73
26436;BME280;15351;52.408;16.826;2023-02-23T13:40:41;100502.83;;;11.44;55.85
26436;BME280;15351;52.408;16.826;2023-02-23T13:43:33;100495.83;;;11.43;55.90
26436;BME280;15351;52.408;16.826;2023-02-23T13:49:35;100489.21;;;11.47;56.58
26436;BME280;15351;52.408;16.826;2023-02-23T13:58:14;100483.33;;;11.42;56.43
26436;BME280;15351;52.408;16.826;2023-02-23T14:01:25;100479.05;;;11.41;56.62
26436;BME280;15351;52.408;16.826;2023-02-23T14:04:06;100473.04;;;11.31;56.74
26436;BME280;15351;52.408;16.826;2023-02-23T14:06:49;100470.42;;;11.25;56.92
26436;BME280;15351;52.408;16.826;2023-02-23T14:09:34;100467.04;;;11.22;57.19
26436;BME280;15351;52.408;16.826;2023-02-23T14:12:34;100467.35;;;11.21;57.63
26436;BME280;15351;52.408;16.826;2023-02-23T14:18:29;100464.36;;;11.15;57.69
26436;BME280;15351;52.408;16.826;2023-02-23T14:24:20;100468.27;;;11.11;58.09
26436;BME280;15351;52.408;16.826;2023-02-23T14:27:04;100462.30;;;11.08;58.10
26436;BME280;15351;52.408;16.826;2023-02-23T14:32:46;100453.95;;;11.01;58.56
26436;BME280;15351;52.408;16.826;2023-02-23T14:35:37;100451.91;;;10.99;58.62
26436;BME280;15351;52.408;16.826;2023-02-23T14:38:21;100455.58;;;10.97;58.84
26436;BME280;15351;52.408;16.826;2023-02-23T14:40:54;100446.90;;;10.97;59.03
26436;BME280;15351;52.408;16.826;2023-02-23T14:46:12;100441.67;;;10.91;59.22
26436;BME280;15351;52.408;16.826;2023-02-23T14:48:44;100443.23;;;10.91;59.59
26436;BME280;15351;52.408;16.826;2023-02-23T14:51:36;100441.75;;;10.90;59.58
26436;BME280;15351;52.408;16.826;2023-02-23T14:54:20;100442.39;;;10.89;59.77
26436;BME280;15351;52.408;16.826;2023-02-23T14:56:54;100444.17;;;10.91;59.94
26436;BME280;15351;52.408;16.826;2023-02-23T14:59:35;100435.19;;;10.94;60.17
26436;BME280;15351;52.408;16.826;2023-02-23T15:02:22;100434.48;;;10.97;60.24
26436;BME280;15351;52.408;16.826;2023-02-23T15:05:16;100432.89;;;10.97;60.35
26436;BME280;15351;52.408;16.826;2023-02-23T15:07:44;100431.68;;;10.96;60.56
26436;BME280;15351;52.408;16.826;2023-02-23T15:10:23;100432.20;;;10.98;60.77
26436;BME280;15351;52.408;16.826;2023-02-23T15:12:56;100430.50;;;11.00;60.66
26436;BME280;15351;52.408;16.826;2023-02-23T15:15:28;100431.11;;;11.04;60.79
26436;BME280;15351;52.408;16.826;2023-02-23T15:18:29;100423.05;;;11.04;60.67
26436;BME280;15351;52.408;16.826;2023-02-23T15:21:08;100422.73;;;11.02;60.90
26436;BME280;15351;52.408;16.826;2023-02-23T15:23:38;100418.64;;;11.00;60.84
26436;BME280;15351;52.408;16.826;2023-02-23T15:31:37;100418.52;;;10.95;61.31
26436;BME280;15351;52.408;16.826;2023-02-23T15:34:15;100415.87;;;10.92;61.50
26436;BME280;15351;52.408;16.826;2023-02-23T15:37:00;100415.58;;;10.91;61.74